Time;durP1;ratioP1;P1;durP2;ratioP2;P2;SDS_P1;SDS_P2;PMS_P1;PMS_P2;Temp;Humidity;BMP_temperature;BMP_pressure;BME280_temperature;BME280_humidity;BME280_pressure;Samples;Min_cycle;Max_cycle;Signal;HPM_P1;HPM_P2
2023/01/26 00:01:43;;;;;;;109.07;31.97;;;-0.30;99.90;;;;;;5071997;28;20119;-77
2023/01/26 00:04:09;;;;;;;100.73;33.13;;;-0.30;99.90;;;;;;5071799;28;20041;-77
2023/01/26 00:06:35;;;;;;;113.37;33.67;;;-0.20;99.90;;;;;;5071657;28;20040;-77
2023/01/26 00:09:01;;;;;;;117.43;34.93;;;-0.30;99.90;;;;;;5070352;28;20193;-77
2023/01/26 00:11:31;;;;;;;111.70;34.17;;;-0.20;99.90;;;;;;5072025;28;20041;-77
2023/01/26 00:13:58;;;;;;;109.80;32.57;;;-0.20;99.90;;;;;;5052893;28;20070;-77
2023/01/26 00:16:24;;;;;;;117.40;33.53;;;-0.20;99.90;;;;;;5071792;28;20051;-77
2023/01/26 00:18:50;;;;;;;122.20;35.53;;;-0.20;99.90;;;;;;5071532;28;20052;-77
2023/01/26 00:21:18;;;;;;;110.50;34.00;;;-0.30;99.90;;;;;;5071280;28;20530;-77
2023/01/26 00:23:44;;;;;;;114.77;32.77;;;-0.20;99.90;;;;;;5071768;28;20398;-77
2023/01/26 00:26:13;;;;;;;133.07;37.93;;;-0.20;99.90;;;;;;5055907;28;20147;-78
2023/01/26 00:28:39;;;;;;;131.07;35.97;;;-0.20;99.90;;;;;;5049991;28;20503;-77
2023/01/26 00:31:11;;;;;;;119.53;34.77;;;-0.20;99.90;;;;;;5051091;28;20053;-77
2023/01/26 00:33:37;;;;;;;127.00;35.83;;;-0.30;99.90;;;;;;5053376;28;20128;-77
2023/01/26 00:36:02;;;;;;;125.53;35.17;;;-0.20;99.90;;;;;;5070673;28;20521;-77
2023/01/26 00:38:28;;;;;;;121.80;34.73;;;-0.30;99.90;;;;;;5070640;28;20071;-78
2023/01/26 00:40:54;;;;;;;131.10;36.27;;;-0.20;99.90;;;;;;5071392;28;20048;-75
2023/01/26 00:43:20;;;;;;;124.57;36.53;;;-0.20;99.90;;;;;;5070983;28;20049;-75
2023/01/26 00:45:45;;;;;;;158.33;39.53;;;-0.20;99.90;;;;;;5071381;28;20402;-75
2023/01/26 00:48:11;;;;;;;146.63;38.03;;;-0.20;99.90;;;;;;5071124;28;20048;-75
2023/01/26 00:50:37;;;;;;;129.30;37.30;;;-0.30;99.90;;;;;;5071419;28;20055;-76
2023/01/26 00:53:02;;;;;;;136.47;36.10;;;-0.30;99.90;;;;;;5069744;28;20040;-75
2023/01/26 00:55:31;;;;;;;150.33;38.67;;;-0.30;99.90;;;;;;5071286;28;20052;-75
2023/01/26 00:57:58;;;;;;;121.67;35.17;;;-0.20;99.90;;;;;;5070600;28;20135;-76
2023/01/26 01:00:24;;;;;;;132.30;37.30;;;-0.20;99.90;;;;;;5071513;28;20052;-75
2023/01/26 01:02:49;;;;;;;151.00;36.73;;;-0.20;99.90;;;;;;5070191;28;20078;-75
2023/01/26 01:05:15;;;;;;;145.20;39.47;;;-0.20;99.90;;;;;;5070407;28;20136;-75
2023/01/26 01:07:41;;;;;;;158.47;37.77;;;-0.20;99.90;;;;;;5070336;28;20051;-75
2023/01/26 01:10:07;;;;;;;135.77;35.17;;;-0.20;99.90;;;;;;5070485;28;20054;-76
2023/01/26 01:12:34;;;;;;;134.97;36.97;;;-0.20;99.90;;;;;;5070088;28;20044;-75
2023/01/26 01:14:59;;;;;;;144.53;37.90;;;-0.10;99.90;;;;;;5070563;28;20036;-75
2023/01/26 01:17:25;;;;;;;128.60;36.20;;;-0.20;99.90;;;;;;5069824;28;20047;-75
2023/01/26 01:19:51;;;;;;;141.30;35.40;;;-0.20;99.90;;;;;;5070866;28;20094;-75
2023/01/26 01:22:17;;;;;;;145.60;38.13;;;-0.20;99.90;;;;;;5069209;28;20143;-75
2023/01/26 01:24:43;;;;;;;155.03;39.57;;;-0.10;99.90;;;;;;5065816;28;20425;-75
2023/01/26 01:27:08;;;;;;;138.27;37.43;;;-0.20;99.90;;;;;;5049857;28;20080;-75
2023/01/26 01:29:34;;;;;;;130.37;35.23;;;-0.20;99.90;;;;;;5050446;28;20045;-76
2023/01/26 01:31:59;;;;;;;140.77;37.07;;;-0.10;99.90;;;;;;5050076;28;20049;-76
2023/01/26 01:34:25;;;;;;;135.93;36.57;;;-0.20;99.90;;;;;;5058824;28;20083;-76
2023/01/26 01:36:51;;;;;;;138.60;36.40;;;-0.10;99.90;;;;;;5069861;28;20041;-75
2023/01/26 01:39:17;;;;;;;121.40;36.27;;;-0.10;99.90;;;;;;5070170;28;20094;-75
2023/01/26 01:41:42;;;;;;;128.60;36.37;;;-0.10;99.90;;;;;;5070247;28;20040;-75
2023/01/26 01:44:36;;;;;;;130.27;35.50;;;0.00;99.90;;;;;;5051377;28;20098;-76
2023/01/26 01:47:11;;;;;;;123.07;34.80;;;-0.10;99.90;;;;;;5066986;28;20052;-72
2023/01/26 01:49:39;;;;;;;131.43;36.13;;;0.00;99.90;;;;;;5068748;28;20414;-75
2023/01/26 01:52:04;;;;;;;143.10;37.93;;;0.00;99.90;;;;;;5069363;28;20437;-76
2023/01/26 01:54:47;;;;;;;143.30;37.50;;;0.00;99.90;;;;;;5068603;28;20050;-75
2023/01/26 01:57:17;;;;;;;135.67;36.30;;;-0.10;99.90;;;;;;5068543;28;20052;-76
2023/01/26 01:59:52;;;;;;;134.83;36.43;;;-0.10;99.90;;;;;;5049922;28;20053;-76
2023/01/26 02:02:18;;;;;;;131.97;36.53;;;0.00;99.90;;;;;;5049453;28;20047;-76
2023/01/26 02:04:45;;;;;;;126.80;34.43;;;0.00;99.90;;;;;;5048811;28;20053;-75
2023/01/26 02:07:11;;;;;;;130.50;35.73;;;0.00;99.90;;;;;;5058230;28;20040;-75
2023/01/26 02:12:28;;;;;;;135.63;35.23;;;0.10;99.90;;;;;;5069372;28;20071;-75
2023/01/26 02:14:55;;;;;;;136.18;33.97;;;0.00;99.90;;;;;;5069771;28;20063;-75
2023/01/26 02:17:21;;;;;;;154.17;36.20;;;0.00;99.90;;;;;;5069213;28;20047;-75
2023/01/26 02:20:27;;;;;;;141.93;35.30;;;0.30;99.90;;;;;;5070085;28;20044;-75
2023/01/26 02:23:08;;;;;;;145.77;35.67;;;0.10;99.90;;;;;;5066705;28;20041;-76
2023/01/26 02:25:48;;;;;;;111.00;27.95;;;0.10;99.90;;;;;;5059403;28;20051;-75
2023/01/26 02:28:16;;;;;;;139.85;36.75;;;0.10;99.90;;;;;;5048817;28;20048;-76
2023/01/26 02:30:42;;;;;;;137.47;34.70;;;0.10;99.90;;;;;;5048980;28;20053;-75
2023/01/26 02:33:17;;;;;;;146.77;36.03;;;0.10;99.90;;;;;;5047715;28;20514;-76
2023/01/26 02:35:42;;;;;;;146.97;36.00;;;0.20;99.90;;;;;;5068765;28;20478;-75
2023/01/26 02:38:08;;;;;;;135.57;35.70;;;0.40;99.90;;;;;;5069329;28;20041;-75
2023/01/26 02:40:54;;;;;;;172.70;37.43;;;0.10;99.90;;;;;;5069579;28;20110;-75
2023/01/26 02:43:22;;;;;;;144.07;35.87;;;0.20;99.90;;;;;;5068895;28;20613;-75
2023/01/26 02:45:48;;;;;;;137.67;35.47;;;0.40;99.90;;;;;;5069603;28;20048;-75
2023/01/26 02:49:45;;;;;;;153.37;35.63;;;0.20;99.90;;;;;;5069088;28;20044;-75
2023/01/26 02:50:59;;;;;;;159.27;37.90;;;0.40;99.90;;;;;;5069298;28;20052;-74
2023/01/26 02:53:25;;;;;;;150.67;37.03;;;0.30;99.90;;;;;;5068768;28;20045;-76
2023/01/26 02:55:51;;;;;;;156.17;37.23;;;0.30;99.90;;;;;;5067764;28;20059;-75
2023/01/26 02:58:16;;;;;;;162.00;37.53;;;0.30;99.90;;;;;;5068873;28;20146;-75
2023/01/26 03:00:42;;;;;;;172.20;38.33;;;0.30;99.90;;;;;;5069324;28;20044;-75
2023/01/26 03:03:21;;;;;;;164.70;39.60;;;0.30;99.90;;;;;;5068764;28;20044;-75
2023/01/26 03:05:46;;;;;;;172.97;39.60;;;0.30;99.90;;;;;;5069545;28;20097;-75
2023/01/26 03:08:12;;;;;;;176.27;41.03;;;0.30;99.90;;;;;;5067867;28;20056;-75
2023/01/26 03:10:38;;;;;;;167.03;40.00;;;0.30;99.90;;;;;;5069166;28;20048;-75
2023/01/26 03:13:04;;;;;;;188.90;39.93;;;0.30;99.90;;;;;;5068728;28;20059;-75
2023/01/26 03:15:42;;;;;;;162.03;39.50;;;0.30;99.90;;;;;;5069070;28;20123;-75
2023/01/26 03:29:13;;;;;;;154.27;37.87;;;0.40;99.90;;;;;;5048692;28;20605;-78
2023/01/26 03:31:39;;;;;;;171.67;40.20;;;0.50;99.90;;;;;;5047813;28;20140;-75
2023/01/26 03:34:05;;;;;;;173.07;39.70;;;0.50;99.90;;;;;;5054262;28;20052;-75
2023/01/26 03:36:30;;;;;;;173.23;40.53;;;0.70;99.90;;;;;;5068810;28;20052;-75
2023/01/26 03:38:56;;;;;;;187.50;42.03;;;0.50;99.90;;;;;;5068899;28;20052;-75
2023/01/26 03:57:48;;;;;;;169.33;40.63;;;0.80;99.90;;;;;;5071447;28;20044;-75
2023/01/26 04:00:14;;;;;;;231.47;45.80;;;0.80;99.90;;;;;;5072243;28;20048;-76
2023/01/26 04:08:27;;;;;;;208.43;44.27;;;0.80;99.90;;;;;;5071741;28;20055;-76
2023/01/26 04:10:54;;;;;;;183.67;40.90;;;0.90;99.90;;;;;;5070849;28;20044;-75
2023/01/26 04:21:36;;;;;;;215.10;43.83;;;1.00;99.90;;;;;;5071049;28;20448;-76
2023/01/26 04:24:12;;;;;;;242.37;45.33;;;1.00;99.90;;;;;;5071361;28;20143;-75
2023/01/26 04:26:39;;;;;;;211.50;43.47;;;1.00;99.90;;;;;;5051572;28;20124;-75
2023/01/26 04:29:07;;;;;;;198.70;43.13;;;1.00;99.90;;;;;;5033481;28;20037;-76
2023/01/26 04:31:33;;;;;;;213.33;44.47;;;1.10;99.90;;;;;;5034136;28;20063;-75
2023/01/26 04:34:05;;;;;;;174.50;40.90;;;1.20;99.90;;;;;;5055839;28;20049;-76
2023/01/26 04:36:31;;;;;;;224.20;46.33;;;1.20;99.90;;;;;;5069857;28;20410;-76
2023/01/26 04:38:57;;;;;;;200.30;43.93;;;1.20;99.90;;;;;;5069936;28;20537;-75
2023/01/26 04:41:23;;;;;;;226.17;46.17;;;1.20;99.90;;;;;;5069598;28;20052;-75
2023/01/26 04:43:49;;;;;;;228.07;46.03;;;1.30;99.90;;;;;;5071417;28;20056;-76
2023/01/26 04:46:15;;;;;;;210.77;44.80;;;1.40;99.90;;;;;;5071200;28;20048;-76
2023/01/26 04:48:41;;;;;;;213.47;44.27;;;1.50;99.90;;;;;;5070366;28;20051;-75
2023/01/26 04:51:16;;;;;;;209.00;44.10;;;1.50;99.90;;;;;;5071308;28;20045;-76
2023/01/26 04:53:41;;;;;;;202.30;41.27;;;1.50;99.90;;;;;;5069925;28;20052;-76
2023/01/26 04:56:20;;;;;;;192.97;41.33;;;1.80;99.90;;;;;;5069573;28;20457;-76
2023/01/26 04:58:46;;;;;;;219.97;43.17;;;1.60;99.90;;;;;;5069120;28;20048;-75
2023/01/26 05:01:12;;;;;;;218.07;43.73;;;1.60;99.90;;;;;;5070380;28;20068;-75
2023/01/26 05:03:37;;;;;;;237.17;45.13;;;1.70;99.90;;;;;;5070100;28;20071;-75
2023/01/26 05:06:03;;;;;;;197.73;42.50;;;1.70;99.90;;;;;;5070256;28;20078;-76
2023/01/26 05:08:29;;;;;;;180.03;39.93;;;1.70;99.90;;;;;;5070725;28;20094;-76
2023/01/26 05:10:54;;;;;;;165.20;37.30;;;2.30;99.90;;;;;;5069720;28;20052;-78
2023/01/26 05:13:20;;;;;;;203.73;39.70;;;1.70;99.90;;;;;;5070062;28;20319;-76
2023/01/26 05:15:46;;;;;;;184.13;38.93;;;1.70;99.90;;;;;;5070820;28;20053;-75
2023/01/26 05:18:12;;;;;;;171.03;36.50;;;1.70;99.90;;;;;;5067460;28;20076;-75
2023/01/26 05:20:38;;;;;;;158.77;36.87;;;1.70;99.90;;;;;;5068040;28;20110;-75
2023/01/26 05:23:03;;;;;;;198.90;38.67;;;1.70;99.90;;;;;;5067288;28;20502;-75
2023/01/26 05:25:29;;;;;;;161.37;37.50;;;1.70;99.90;;;;;;5067250;28;20083;-75
2023/01/26 05:27:55;;;;;;;225.23;39.77;;;1.90;99.90;;;;;;5067577;28;20537;-78
2023/01/26 05:30:20;;;;;;;144.90;32.20;;;1.70;99.90;;;;;;5070433;28;20202;-75
2023/01/26 05:32:46;;;;;;;158.50;34.20;;;1.80;99.90;;;;;;5068528;28;20044;-75
2023/01/26 05:35:12;;;;;;;145.07;33.83;;;1.80;99.90;;;;;;5069016;28;20127;-76
2023/01/26 05:37:37;;;;;;;231.93;37.77;;;1.80;99.90;;;;;;5068507;28;20071;-76
2023/01/26 05:40:04;;;;;;;190.60;35.80;;;1.80;99.90;;;;;;5069643;28;20122;-77
2023/01/26 05:42:29;;;;;;;210.97;36.80;;;1.80;99.90;;;;;;5069632;28;20495;-75
2023/01/26 05:44:55;;;;;;;193.70;37.60;;;1.90;99.90;;;;;;5070168;28;20036;-75
2023/01/26 05:47:21;;;;;;;160.47;39.57;;;1.90;99.90;;;;;;5068742;28;20131;-77
2023/01/26 05:49:46;;;;;;;176.60;42.23;;;1.90;99.90;;;;;;5069899;28;20048;-78
2023/01/26 05:52:15;;;;;;;168.40;40.57;;;2.00;99.90;;;;;;5069272;28;20048;-77
2023/01/26 05:54:41;;;;;;;166.57;38.53;;;2.00;99.90;;;;;;5068749;28;20279;-77
2023/01/26 05:57:07;;;;;;;164.27;41.13;;;1.90;99.90;;;;;;5069249;28;20084;-78
2023/01/26 05:59:33;;;;;;;179.00;40.13;;;1.90;99.90;;;;;;5070154;28;20486;-77
2023/01/26 06:01:59;;;;;;;175.60;39.70;;;2.00;99.90;;;;;;5069502;28;20056;-78
2023/01/26 06:04:25;;;;;;;143.73;34.50;;;2.10;99.90;;;;;;5069256;28;20060;-77
2023/01/26 06:06:52;;;;;;;153.33;31.60;;;2.00;99.90;;;;;;5068689;28;20132;-75
2023/01/26 06:09:18;;;;;;;133.47;30.07;;;2.00;99.90;;;;;;5068408;28;20315;-75
2023/01/26 06:11:44;;;;;;;125.17;29.63;;;2.00;99.90;;;;;;5049698;28;20045;-75
2023/01/26 06:14:10;;;;;;;114.27;26.60;;;2.20;99.90;;;;;;5049579;28;20099;-75
2023/01/26 06:16:35;;;;;;;153.53;29.20;;;2.00;99.90;;;;;;5031634;28;20076;-75
2023/01/26 06:19:01;;;;;;;105.77;24.13;;;2.00;99.90;;;;;;5049708;28;20513;-75
2023/01/26 06:21:27;;;;;;;110.00;23.90;;;2.10;99.90;;;;;;5048972;28;20333;-75
2023/01/26 06:23:53;;;;;;;114.90;24.00;;;2.00;99.90;;;;;;5055483;28;20044;-75
2023/01/26 06:26:18;;;;;;;102.17;22.13;;;2.00;99.90;;;;;;5053109;28;20049;-75
2023/01/26 06:28:44;;;;;;;102.20;18.87;;;2.00;99.90;;;;;;5047146;28;20068;-75
2023/01/26 06:31:10;;;;;;;92.27;16.47;;;2.10;99.90;;;;;;5049717;28;20131;-75
2023/01/26 06:33:36;;;;;;;85.03;16.07;;;2.10;99.90;;;;;;5032767;28;20041;-75
2023/01/26 06:36:10;;;;;;;83.10;13.70;;;2.20;99.90;;;;;;5069377;28;20048;-75
2023/01/26 06:38:36;;;;;;;86.77;12.77;;;2.40;99.90;;;;;;5051615;28;20053;-75
2023/01/26 06:41:05;;;;;;;84.13;11.87;;;2.50;99.90;;;;;;5069321;28;20048;-75
2023/01/26 06:43:34;;;;;;;74.40;9.90;;;2.50;99.90;;;;;;5068574;28;20044;-75
2023/01/26 06:46:01;;;;;;;82.53;10.17;;;2.70;99.90;;;;;;5069382;28;20068;-76
2023/01/26 06:48:31;;;;;;;80.93;9.80;;;2.60;99.90;;;;;;5067876;28;20417;-75
2023/01/26 06:51:04;;;;;;;67.60;10.23;;;2.80;99.90;;;;;;5051713;28;20052;-76
2023/01/26 06:53:35;;;;;;;65.00;9.57;;;2.80;99.90;;;;;;5068349;28;20045;-75
2023/01/26 06:56:01;;;;;;;66.32;9.38;;;2.80;99.90;;;;;;5068460;28;20048;-75
2023/01/26 06:58:27;;;;;;;66.20;8.13;;;2.70;99.90;;;;;;5067343;28;20815;-76
2023/01/26 07:00:54;;;;;;;80.50;8.50;;;2.80;99.90;;;;;;5065943;28;20044;-76
2023/01/26 07:03:20;;;;;;;63.87;8.87;;;2.70;99.90;;;;;;5065827;28;20040;-76
2023/01/26 07:05:46;;;;;;;70.87;8.33;;;2.60;99.90;;;;;;5066185;28;20105;-75
2023/01/26 07:08:11;;;;;;;65.17;7.87;;;2.90;99.90;;;;;;5064179;28;20052;-76
2023/01/26 07:10:38;;;;;;;56.53;8.33;;;2.60;99.90;;;;;;5057878;28;20283;-78
2023/01/26 07:13:04;;;;;;;55.83;7.90;;;2.50;99.90;;;;;;5054304;28;20430;-75
2023/01/26 07:15:30;;;;;;;68.63;8.23;;;2.50;99.90;;;;;;5059436;28;20080;-77
2023/01/26 07:17:57;;;;;;;62.63;7.53;;;2.50;99.90;;;;;;5062290;28;20087;-76
2023/01/26 07:20:23;;;;;;;66.20;8.77;;;2.50;99.90;;;;;;5068462;28;20052;-75
2023/01/26 07:22:49;;;;;;;57.03;8.17;;;2.50;99.90;;;;;;5065656;28;20094;-75
2023/01/26 07:25:16;;;;;;;63.30;7.70;;;2.50;99.90;;;;;;5068048;28;20573;-75
2023/01/26 07:27:42;;;;;;;61.07;8.00;;;2.60;99.90;;;;;;5068302;28;20056;-75
2023/01/26 07:30:09;;;;;;;66.00;8.77;;;2.60;99.90;;;;;;5067222;28;20048;-76
2023/01/26 07:32:35;;;;;;;66.70;8.83;;;2.70;99.90;;;;;;5066570;28;20040;-75
2023/01/26 07:35:00;;;;;;;63.47;8.83;;;2.70;99.90;;;;;;5068439;28;20556;-75
2023/01/26 07:37:27;;;;;;;69.60;7.87;;;2.80;99.90;;;;;;5065345;28;20083;-75
2023/01/26 07:39:53;;;;;;;68.00;7.70;;;2.80;99.90;;;;;;5067832;28;20494;-77
2023/01/26 07:42:19;;;;;;;62.03;7.77;;;2.90;99.90;;;;;;5067615;28;20051;-76
2023/01/26 07:44:44;;;;;;;60.50;6.70;;;2.90;99.90;;;;;;5068156;28;20139;-75
2023/01/26 07:47:10;;;;;;;60.40;8.13;;;3.00;99.90;;;;;;5068029;28;20044;-75
2023/01/26 07:49:36;;;;;;;61.43;7.63;;;3.00;99.90;;;;;;5068801;28;20375;-76
2023/01/26 07:52:02;;;;;;;62.70;7.10;;;3.00;99.90;;;;;;5070030;28;20495;-72
2023/01/26 07:54:27;;;;;;;63.50;7.00;;;3.00;99.90;;;;;;5068531;28;20645;-76
2023/01/26 07:56:53;;;;;;;64.63;7.17;;;3.00;99.90;;;;;;5061620;28;20556;-75
2023/01/26 07:59:20;;;;;;;53.53;7.17;;;3.00;99.90;;;;;;5056668;28;20244;-76
2023/01/26 08:01:48;;;;;;;60.70;7.87;;;2.90;99.90;;;;;;5051350;28;20050;-79
2023/01/26 08:04:14;;;;;;;57.87;8.10;;;2.90;99.90;;;;;;5051921;28;20048;-80
2023/01/26 08:06:39;;;;;;;57.30;7.90;;;2.80;99.90;;;;;;5043064;28;20059;-78
2023/01/26 08:09:05;;;;;;;53.00;7.60;;;2.80;99.90;;;;;;5044802;28;20967;-76
2023/01/26 08:11:31;;;;;;;63.40;9.17;;;2.70;99.90;;;;;;5044074;28;20105;-78
2023/01/26 08:13:56;;;;;;;54.37;7.50;;;2.80;99.90;;;;;;5044815;28;20433;-78
2023/01/26 08:16:22;;;;;;;58.20;7.83;;;2.90;99.90;;;;;;5062614;28;20139;-79
2023/01/26 08:18:48;;;;;;;64.70;8.30;;;2.90;99.90;;;;;;5045567;28;20091;-79
2023/01/26 08:21:16;;;;;;;56.27;7.60;;;3.00;99.90;;;;;;5047957;28;20074;-77
2023/01/26 08:23:42;;;;;;;53.07;8.77;;;3.10;99.90;;;;;;5041812;28;20044;-78
2023/01/26 08:26:11;;;;;;;54.60;8.73;;;3.20;99.90;;;;;;5040515;28;20045;-77
2023/01/26 08:28:36;;;;;;;55.97;7.63;;;3.30;99.90;;;;;;5039522;28;20044;-76
2023/01/26 08:31:10;;;;;;;52.60;7.03;;;3.50;99.90;;;;;;5047314;28;20707;-76
2023/01/26 08:33:36;;;;;;;60.17;7.60;;;3.60;99.90;;;;;;5048162;28;20049;-76
2023/01/26 08:36:03;;;;;;;53.80;7.80;;;3.80;99.90;;;;;;5041274;28;20584;-78
2023/01/26 08:38:33;;;;;;;39.30;7.37;;;4.20;99.90;;;;;;5060638;28;20049;-79
2023/01/26 08:41:02;;;;;;;56.20;7.83;;;4.30;99.90;;;;;;5047169;28;20105;-80
2023/01/26 08:43:28;;;;;;;53.87;7.47;;;4.30;99.90;;;;;;5047093;28;20043;-77
2023/01/26 08:45:54;;;;;;;51.60;7.80;;;4.50;99.90;;;;;;5047118;28;20056;-76
2023/01/26 08:48:21;;;;;;;45.53;7.43;;;4.40;99.90;;;;;;5042865;28;20045;-80
2023/01/26 08:50:46;;;;;;;60.33;7.67;;;4.70;99.90;;;;;;5043663;28;20050;-77
2023/01/26 08:53:12;;;;;;;49.77;7.20;;;4.70;99.90;;;;;;5044940;28;20067;-80
2023/01/26 08:55:38;;;;;;;56.70;8.10;;;4.70;99.90;;;;;;5046089;28;20048;-76
2023/01/26 08:58:04;;;;;;;40.47;6.87;;;4.70;99.90;;;;;;5043670;28;20064;-78
2023/01/26 09:00:30;;;;;;;41.47;6.90;;;4.70;99.90;;;;;;5042042;28;20589;-78
2023/01/26 09:03:00;;;;;;;43.23;7.50;;;4.70;99.90;;;;;;5044808;28;20049;-77
2023/01/26 09:05:27;;;;;;;42.30;7.10;;;4.70;99.90;;;;;;5047129;28;20869;-77
2023/01/26 09:07:53;;;;;;;47.33;7.17;;;4.70;99.90;;;;;;5035218;28;20571;-76
2023/01/26 09:10:18;;;;;;;57.50;8.03;;;4.70;99.90;;;;;;5042990;28;20045;-78
2023/01/26 09:12:44;;;;;;;58.93;7.73;;;4.80;99.90;;;;;;5021879;28;20451;-77
2023/01/26 09:15:10;;;;;;;52.40;7.33;;;4.90;99.90;;;;;;5048785;28;20390;-75
2023/01/26 09:17:36;;;;;;;46.33;7.30;;;4.80;99.90;;;;;;5049843;28;20063;-81
2023/01/26 09:20:04;;;;;;;48.17;7.87;;;4.80;99.90;;;;;;5050176;28;20139;-75
2023/01/26 09:22:29;;;;;;;57.13;8.07;;;4.90;99.90;;;;;;5049844;28;20056;-75
2023/01/26 09:24:55;;;;;;;53.40;8.23;;;4.90;99.90;;;;;;5045943;28;20062;-76
2023/01/26 09:27:21;;;;;;;50.47;7.20;;;4.90;99.90;;;;;;5049601;28;23089;-78
2023/01/26 09:29:47;;;;;;;47.83;7.60;;;4.90;99.90;;;;;;5045957;28;20048;-76
2023/01/26 09:32:13;;;;;;;36.97;7.03;;;5.00;99.90;;;;;;5037039;28;20533;-78
2023/01/26 09:34:39;;;;;;;44.80;7.53;;;5.10;99.90;;;;;;5038847;28;20115;-76
2023/01/26 09:37:06;;;;;;;48.93;7.70;;;5.20;99.90;;;;;;5032043;28;20053;-78
2023/01/26 09:39:32;;;;;;;39.33;6.63;;;5.30;99.90;;;;;;5029492;28;20159;-80
2023/01/26 09:42:29;;;;;;;40.20;7.57;;;5.40;99.90;;;;;;5035810;28;20345;-77
2023/01/26 09:45:14;;;;;;;43.37;7.07;;;5.60;99.90;;;;;;5022112;28;20070;-75
2023/01/26 09:47:58;;;;;;;39.63;7.73;;;5.90;99.90;;;;;;5041367;28;20693;-75
2023/01/26 09:50:29;;;;;;;43.30;8.37;;;6.10;99.90;;;;;;5050798;28;20762;-75
2023/01/26 09:53:00;;;;;;;48.80;9.30;;;6.20;99.90;;;;;;5036116;28;20100;-76
2023/01/26 09:55:26;;;;;;;49.23;9.70;;;6.30;99.90;;;;;;5047466;28;20052;-77
2023/01/26 09:58:00;;;;;;;40.53;9.10;;;6.40;99.90;;;;;;5036648;28;20045;-76
2023/01/26 10:00:35;;;;;;;47.10;8.83;;;6.40;99.90;;;;;;5046625;28;20054;-79
2023/01/26 10:03:36;;;;;;;38.47;9.97;;;6.50;99.90;;;;;;5048538;28;20037;-77
2023/01/26 10:06:28;;;;;;;44.63;9.10;;;6.50;99.90;;;;;;5047815;28;20048;-75
2023/01/26 10:08:56;;;;;;;38.73;9.53;;;6.40;99.90;;;;;;5044714;28;20498;-79
2023/01/26 10:11:36;;;;;;;52.00;12.17;;;6.50;99.90;;;;;;5046669;28;20047;-76
2023/01/26 10:14:18;;;;;;;31.80;9.97;;;6.50;99.90;;;;;;5047240;28;20569;-76
2023/01/26 10:16:48;;;;;;;37.37;10.67;;;6.50;99.90;;;;;;5046779;28;20521;-76
2023/01/26 10:19:22;;;;;;;42.40;10.17;;;6.60;99.90;;;;;;5048826;28;20398;-80
2023/01/26 10:21:50;;;;;;;37.63;9.80;;;6.40;99.90;;;;;;5046188;28;20514;-76
2023/01/26 10:24:21;;;;;;;37.27;9.77;;;6.40;99.90;;;;;;5045475;28;20048;-77
2023/01/26 10:26:49;;;;;;;31.65;8.05;;;6.40;99.90;;;;;;5039397;28;20143;-76
2023/01/26 10:29:21;;;;;;;38.47;9.50;;;6.50;99.90;;;;;;5031357;28;20522;-76
2023/01/26 10:31:46;;;;;;;31.87;9.73;;;6.50;99.90;;;;;;5044261;28;20056;-76
2023/01/26 10:34:21;;;;;;;38.67;12.80;;;6.60;99.90;;;;;;5027698;28;20059;-79
2023/01/26 10:36:47;;;;;;;42.80;11.67;;;6.70;99.90;;;;;;5045569;28;20601;-76
2023/01/26 10:39:17;;;;;;;33.83;11.50;;;7.40;99.90;;;;;;5047618;28;20049;-76
2023/01/26 10:42:03;;;;;;;29.13;10.27;;;7.70;99.90;;;;;;5044906;28;21460;-78
2023/01/26 10:44:34;;;;;;;31.30;8.80;;;8.20;99.90;;;;;;5047362;28;20048;-76
2023/01/26 10:47:20;;;;;;;40.63;16.30;;;8.80;99.90;;;;;;5040934;28;20562;-78
2023/01/26 10:49:46;;;;;;;31.60;11.77;;;9.00;99.90;;;;;;5049582;28;20051;-76
2023/01/26 10:52:26;;;;;;;35.80;19.13;;;9.30;99.90;;;;;;5067673;28;20443;-76
2023/01/26 10:55:16;;;;;;;26.83;12.17;;;9.10;99.90;;;;;;5071220;28;20101;-76
2023/01/26 10:57:42;;;;;;;28.93;14.87;;;9.00;99.90;;;;;;5060472;28;20083;-76
2023/01/26 11:00:27;;;;;;;30.23;17.97;;;8.90;99.90;;;;;;5066791;28;20230;-76
2023/01/26 11:03:17;;;;;;;28.87;17.63;;;9.20;99.90;;;;;;5061317;28;20044;-77
2023/01/26 11:05:45;;;;;;;32.43;21.83;;;9.80;99.90;;;;;;5068949;28;20052;-76
2023/01/26 11:08:34;;;;;;;32.10;21.23;;;10.20;99.90;;;;;;5054837;28;20049;-79
2023/01/26 11:11:00;;;;;;;39.27;32.30;;;10.60;99.90;;;;;;5065114;28;20052;-76
2023/01/26 11:13:26;;;;;;;32.00;27.40;;;10.40;99.90;;;;;;5065703;28;20051;-76
2023/01/26 11:16:11;;;;;;;32.13;26.43;;;10.90;99.90;;;;;;5023166;28;20044;-80
2023/01/26 11:18:52;;;;;;;40.63;36.73;;;11.40;99.90;;;;;;5064062;28;20502;-76
2023/01/26 11:21:34;;;;;;;31.83;23.77;;;11.50;99.90;;;;;;5057468;28;20056;-77
2023/01/26 11:24:14;;;;;;;39.23;35.10;;;11.60;99.90;;;;;;5060374;28;20098;-76
2023/01/26 11:26:58;;;;;;;39.57;36.00;;;11.40;99.90;;;;;;5064352;28;20056;-76
2023/01/26 11:29:45;;;;;;;35.03;31.43;;;10.70;99.90;;;;;;5063218;28;20048;-76
2023/01/26 11:32:22;;;;;;;35.53;31.80;;;10.20;99.90;;;;;;5060967;28;20418;-76
2023/01/26 11:34:59;;;;;;;35.13;26.03;;;9.70;99.90;;;;;;5062479;28;20052;-78
2023/01/26 11:37:48;;;;;;;37.60;21.83;;;9.40;99.90;;;;;;5061598;28;20050;-78
2023/01/26 11:40:28;;;;;;;32.07;28.60;;;9.70;99.90;;;;;;5059881;28;20096;-76
2023/01/26 11:43:04;;;;;;;27.83;24.93;;;9.40;99.90;;;;;;5057056;28;20055;-77
2023/01/26 11:45:53;;;;;;;35.03;26.63;;;9.30;99.90;;;;;;5060723;28;20060;-76
2023/01/26 11:48:48;;;;;;;32.63;27.67;;;9.00;99.90;;;;;;5061010;28;20481;-76
2023/01/26 11:51:29;;;;;;;31.03;21.83;;;8.70;99.90;;;;;;5046871;28;20510;-76
2023/01/26 11:54:07;;;;;;;32.90;18.23;;;8.50;99.90;;;;;;5058327;28;20047;-76
2023/01/26 11:56:49;;;;;;;30.63;18.37;;;8.40;99.90;;;;;;5062001;28;20494;-76
2023/01/26 11:59:51;;;;;;;32.47;17.47;;;8.30;99.90;;;;;;5061633;28;20439;-78
2023/01/26 12:02:33;;;;;;;32.80;19.90;;;8.10;99.90;;;;;;5061530;28;20392;-78
2023/01/26 12:05:10;;;;;;;30.90;19.83;;;8.00;99.90;;;;;;5078180;28;20048;-76
2023/01/26 12:07:56;;;;;;;26.53;12.90;;;7.80;99.90;;;;;;5062748;28;20080;-76
2023/01/26 12:10:32;;;;;;;20.93;13.17;;;7.90;99.90;;;;;;5058597;28;20558;-76
2023/01/26 12:13:14;;;;;;;19.20;12.77;;;7.90;99.90;;;;;;5061265;28;20040;-76
2023/01/26 12:15:46;;;;;;;25.20;16.07;;;7.80;99.90;;;;;;5064626;28;20449;-76
2023/01/26 12:18:21;;;;;;;24.83;14.43;;;7.90;99.90;;;;;;5065005;28;20057;-77
2023/01/26 12:21:09;;;;;;;24.53;10.93;;;8.00;99.90;;;;;;5062007;28;20049;-76
2023/01/26 12:24:19;;;;;;;18.27;14.13;;;8.40;99.90;;;;;;5078431;28;21282;-76
2023/01/26 12:26:48;;;;;;;21.40;9.00;;;8.50;99.90;;;;;;5004024;28;20053;-76
2023/01/26 12:29:21;;;;;;;24.07;15.50;;;8.50;99.90;;;;;;5052248;28;20057;-76
2023/01/26 12:32:02;;;;;;;16.90;13.53;;;8.40;99.90;;;;;;5058876;28;20375;-76
2023/01/26 12:34:31;;;;;;;20.95;13.27;;;8.30;99.90;;;;;;5059030;28;20124;-76
2023/01/26 12:37:09;;;;;;;19.27;16.00;;;8.30;99.90;;;;;;5043797;28;20129;-76
2023/01/26 12:39:47;;;;;;;24.90;18.37;;;8.20;99.90;;;;;;5043617;28;20120;-76
2023/01/26 12:42:25;;;;;;;19.00;11.93;;;8.00;99.90;;;;;;5042045;28;20411;-77
2023/01/26 12:44:55;;;;;;;20.70;11.03;;;7.90;99.90;;;;;;5065189;28;20335;-76
2023/01/26 12:47:27;;;;;;;21.20;10.77;;;7.80;99.90;;;;;;5064128;28;20048;-76
2023/01/26 12:49:55;;;;;;;18.80;10.90;;;7.80;99.90;;;;;;5065185;28;20052;-79
2023/01/26 12:52:36;;;;;;;23.53;11.90;;;7.80;99.90;;;;;;5065868;28;20049;-77
2023/01/26 12:55:17;;;;;;;24.30;14.45;;;7.70;99.90;;;;;;5064219;28;20040;-79
2023/01/26 12:57:53;;;;;;;23.80;20.17;;;7.80;99.90;;;;;;5065119;28;20041;-76
2023/01/26 13:00:23;;;;;;;21.57;13.10;;;7.80;99.90;;;;;;5065606;28;20050;-76
2023/01/26 13:02:54;;;;;;;21.43;12.43;;;7.80;99.90;;;;;;5066148;28;20049;-78
2023/01/26 13:05:24;;;;;;;21.97;14.37;;;7.80;99.90;;;;;;5066484;28;20074;-76
2023/01/26 13:07:50;;;;;;;18.27;10.30;;;7.70;99.90;;;;;;5064769;28;20056;-78
2023/01/26 13:10:19;;;;;;;21.60;11.10;;;7.70;99.90;;;;;;5047426;28;20048;-79
2023/01/26 13:12:59;;;;;;;24.10;13.80;;;7.60;99.90;;;;;;5064843;28;20400;-76
2023/01/26 13:15:30;;;;;;;26.47;20.20;;;7.50;99.90;;;;;;5065394;28;20080;-76
2023/01/26 13:17:57;;;;;;;15.55;6.03;;;7.50;99.90;;;;;;5062412;28;20495;-76
2023/01/26 13:20:43;;;;;;;18.67;8.73;;;7.40;99.90;;;;;;5064431;28;20399;-77
2023/01/26 13:23:27;;;;;;;20.70;8.20;;;7.40;99.90;;;;;;5062752;28;20063;-76
2023/01/26 13:26:22;;;;;;;20.30;9.07;;;7.40;99.90;;;;;;5062942;28;20063;-76
2023/01/26 13:28:48;;;;;;;22.07;9.43;;;7.40;99.90;;;;;;5026667;28;20128;-78
2023/01/26 13:31:32;;;;;;;19.80;9.40;;;7.30;99.90;;;;;;5043634;28;20491;-76
2023/01/26 13:34:04;;;;;;;19.30;8.93;;;7.30;99.90;;;;;;5040585;28;20037;-76